Time,TemperatureF,DewpointF,PressureIn,WindDirection,WindDirectionDegrees,WindSpeedMPH,WindSpeedGustMPH,Humidity,HourlyPrecipIn,Conditions,Clouds,dailyrainin,SoftwareType,DateUTC
2013-05-15 00:00:00,54.5,49.9,30.15,North,0,0.0,0.7,80,0.00,,,0.00,fowsr,2013-05-15 04:00:00,
2013-05-15 00:05:00,54.5,50.2,30.15,North,0,0.7,1.6,81,0.00,,,0.00,fowsr,2013-05-15 04:05:00,
2013-05-15 00:10:00,54.5,50.2,30.15,North,0,0.7,1.6,81,0.00,,,0.00,fowsr,2013-05-15 04:10:00,
2013-05-15 00:15:00,54.7,50.4,30.15,North,0,0.0,0.7,81,0.00,,,0.00,fowsr,2013-05-15 04:15:00,
2013-05-15 00:20:00,54.7,49.9,30.15,North,0,0.0,0.7,79,0.00,,,0.00,fowsr,2013-05-15 04:20:00,
2013-05-15 00:25:00,54.7,49.6,30.15,North,0,0.0,0.0,78,0.00,,,0.00,fowsr,2013-05-15 04:25:00,
2013-05-15 00:30:00,54.7,49.3,30.15,NW,315,0.0,0.7,77,0.00,,,0.00,fowsr,2013-05-15 04:30:00,
2013-05-15 00:35:00,54.7,48.8,30.14,North,0,0.7,1.6,75,0.00,,,0.00,fowsr,2013-05-15 04:35:00,
2013-05-15 00:40:00,54.7,48.5,30.14,North,0,0.0,0.0,74,0.00,,,0.00,fowsr,2013-05-15 04:40:00,
2013-05-15 00:45:00,54.5,48.4,30.15,NE,45,0.0,0.7,74,0.00,,,0.00,fowsr,2013-05-15 04:45:00,
2013-05-15 00:50:00,54.3,48.2,30.14,North,0,0.0,0.7,74,0.00,,,0.00,fowsr,2013-05-15 04:50:00,
2013-05-15 00:55:00,54.3,48.2,30.14,NW,315,0.7,1.6,74,0.00,,,0.00,fowsr,2013-05-15 04:55:00,
2013-05-15 01:00:00,54.3,47.9,30.14,North,0,0.7,2.2,73,0.00,,,0.00,fowsr,2013-05-15 05:00:00,
2013-05-15 01:05:00,54.5,47.8,30.14,NE,45,0.7,3.8,72,0.00,,,0.00,fowsr,2013-05-15 05:05:00,
2013-05-15 01:10:00,54.5,47.8,30.15,North,0,0.7,2.2,72,0.00,,,0.00,fowsr,2013-05-15 05:10:00,
2013-05-15 01:15:00,54.7,47.7,30.15,NE,45,0.7,1.6,71,0.00,,,0.00,fowsr,2013-05-15 05:15:00,
2013-05-15 01:20:00,54.7,47.4,30.14,NW,315,1.6,3.8,70,0.00,,,0.00,fowsr,2013-05-15 05:20:00,
2013-05-15 01:25:00,54.9,47.6,30.14,North,0,1.6,2.2,70,0.00,,,0.00,fowsr,2013-05-15 05:25:00,
2013-05-15 01:30:00,54.9,47.6,30.15,NW,315,0.7,2.2,70,0.00,,,0.00,fowsr,2013-05-15 05:30:00,
2013-05-15 01:35:00,55.0,47.8,30.14,NE,45,1.6,3.1,70,0.00,,,0.00,fowsr,2013-05-15 05:35:00,
2013-05-15 01:40:00,55.0,48.1,30.14,North,0,0.7,1.6,71,0.00,,,0.00,fowsr,2013-05-15 05:40:00,
2013-05-15 01:45:00,55.0,48.1,30.14,North,0,0.0,1.6,71,0.00,,,0.00,fowsr,2013-05-15 05:45:00,
2013-05-15 01:50:00,55.0,48.1,30.14,North,0,0.0,0.7,71,0.00,,,0.00,fowsr,2013-05-15 05:50:00,
2013-05-15 01:55:00,55.0,48.1,30.14,North,0,0.7,0.7,71,0.00,,,0.00,fowsr,2013-05-15 05:55:00,
2013-05-15 02:00:00,54.9,47.9,30.13,North,0,0.0,1.6,71,0.00,,,0.00,fowsr,2013-05-15 06:00:00,
2013-05-15 02:05:00,54.9,47.9,30.14,NW,315,0.0,0.7,71,0.00,,,0.00,fowsr,2013-05-15 06:05:00,
2013-05-15 02:10:00,54.7,47.7,30.14,North,0,0.0,0.0,71,0.00,,,0.00,fowsr,2013-05-15 06:10:00,
2013-05-15 02:15:00,54.7,47.7,30.13,North,0,0.7,1.6,71,0.00,,,0.00,fowsr,2013-05-15 06:15:00,
2013-05-15 02:20:00,54.7,48.0,30.13,North,0,0.0,0.7,72,0.00,,,0.00,fowsr,2013-05-15 06:20:00,
2013-05-15 02:25:00,54.7,48.0,30.13,North,0,0.0,0.7,72,0.00,,,0.00,fowsr,2013-05-15 06:25:00,
2013-05-15 02:30:00,54.7,48.3,30.13,North,0,0.0,0.7,73,0.00,,,0.00,fowsr,2013-05-15 06:30:00,
2013-05-15 02:35:00,54.7,48.5,30.13,North,0,0.0,0.7,74,0.00,,,0.00,fowsr,2013-05-15 06:35:00,
2013-05-15 02:40:00,54.9,49.0,30.13,WNW,292,0.7,1.6,75,0.00,,,0.00,fowsr,2013-05-15 06:40:00,
2013-05-15 02:45:00,54.9,49.2,30.12,NW,315,0.7,1.6,76,0.00,,,0.00,fowsr,2013-05-15 06:45:00,
2013-05-15 02:50:00,55.0,49.4,30.13,North,0,0.7,1.6,76,0.00,,,0.00,fowsr,2013-05-15 06:50:00,
2013-05-15 02:55:00,55.0,49.4,30.12,NE,45,0.0,1.6,76,0.00,,,0.00,fowsr,2013-05-15 06:55:00,
2013-05-15 03:00:00,55.2,50.1,30.12,NW,315,0.7,1.6,78,0.00,,,0.00,fowsr,2013-05-15 07:00:00,
2013-05-15 03:05:00,55.2,50.1,30.11,NW,315,0.7,1.6,78,0.00,,,0.00,fowsr,2013-05-15 07:05:00,
2013-05-15 03:10:00,55.4,50.5,30.11,North,0,0.7,1.6,79,0.00,,,0.00,fowsr,2013-05-15 07:10:00,
2013-05-15 03:15:00,55.4,50.3,30.10,North,0,0.7,1.6,78,0.00,,,0.00,fowsr,2013-05-15 07:15:00,
2013-05-15 03:20:00,55.4,50.3,30.10,North,0,1.6,3.1,78,0.00,,,0.00,fowsr,2013-05-15 07:20:00,
2013-05-15 03:25:00,55.4,50.3,30.10,North,0,0.7,2.2,78,0.00,,,0.00,fowsr,2013-05-15 07:25:00,
2013-05-15 03:30:00,55.4,50.5,30.10,North,0,0.7,1.6,79,0.00,,,0.00,fowsr,2013-05-15 07:30:00,
2013-05-15 03:35:00,55.4,50.5,30.10,North,0,0.7,1.6,79,0.00,,,0.00,fowsr,2013-05-15 07:35:00,
2013-05-15 03:40:00,55.4,50.5,30.10,North,0,0.7,1.6,79,0.00,,,0.00,fowsr,2013-05-15 07:40:00,
2013-05-15 03:45:00,55.4,50.5,30.10,NW,315,0.7,1.6,79,0.00,,,0.00,fowsr,2013-05-15 07:45:00,
2013-05-15 03:50:00,55.2,50.6,30.10,NE,45,0.7,2.2,80,0.00,,,0.00,fowsr,2013-05-15 07:50:00,
2013-05-15 03:55:00,55.2,50.4,30.10,NW,315,0.7,2.2,79,0.00,,,0.00,fowsr,2013-05-15 07:55:00,
2013-05-15 04:00:00,55.2,50.1,30.10,NE,45,0.0,1.6,78,0.00,,,0.00,fowsr,2013-05-15 08:00:00,
2013-05-15 04:05:00,55.2,50.1,30.10,North,0,1.6,2.2,78,0.00,,,0.00,fowsr,2013-05-15 08:05:00,
2013-05-15 04:10:00,55.4,50.0,30.10,NE,45,0.7,2.2,77,0.00,,,0.00,fowsr,2013-05-15 08:10:00,
2013-05-15 04:15:00,55.4,50.0,30.10,North,0,1.6,2.2,77,0.00,,,0.00,fowsr,2013-05-15 08:15:00,
2013-05-15 04:25:00,55.6,49.9,30.08,NW,315,0.7,3.1,76,0.00,,,0.00,fowsr,2013-05-15 08:25:00,
2013-05-15 04:30:00,55.8,49.8,30.08,North,0,1.6,3.1,75,0.00,,,0.00,fowsr,2013-05-15 08:30:00,
2013-05-15 04:35:00,55.8,49.0,30.08,North,0,1.6,3.1,72,0.00,,,0.00,fowsr,2013-05-15 08:35:00,
2013-05-15 04:40:00,56.1,49.1,30.08,NW,315,0.7,1.6,71,0.00,,,0.00,fowsr,2013-05-15 08:40:00,
2013-05-15 04:45:00,56.1,49.1,30.08,NW,315,1.6,2.2,71,0.00,,,0.00,fowsr,2013-05-15 08:45:00,
2013-05-15 04:50:00,56.3,49.5,30.08,North,0,1.6,2.2,72,0.00,,,0.00,fowsr,2013-05-15 08:50:00,
2013-05-15 04:55:00,56.3,49.5,30.08,SE,135,0.7,2.2,72,0.00,,,0.00,fowsr,2013-05-15 08:55:00,
2013-05-15 05:00:00,56.3,49.8,30.08,North,0,0.7,1.6,73,0.00,,,0.00,fowsr,2013-05-15 09:00:00,
2013-05-15 05:05:00,56.3,49.8,30.07,North,0,0.7,1.6,73,0.00,,,0.00,fowsr,2013-05-15 09:05:00,
2013-05-15 05:10:00,56.5,50.5,30.07,North,0,2.2,4.5,75,0.00,,,0.00,fowsr,2013-05-15 09:10:00,
2013-05-15 05:15:00,56.3,50.4,30.07,NW,315,1.6,2.2,75,0.00,,,0.00,fowsr,2013-05-15 09:15:00,
2013-05-15 05:20:00,56.3,50.6,30.07,North,0,1.6,3.1,76,0.00,,,0.00,fowsr,2013-05-15 09:20:00,
2013-05-15 05:25:00,56.3,50.6,30.07,NW,315,0.7,2.2,76,0.00,,,0.00,fowsr,2013-05-15 09:25:00,
2013-05-15 05:30:00,56.1,50.7,30.07,North,0,0.7,1.6,77,0.00,,,0.00,fowsr,2013-05-15 09:30:00,
2013-05-15 05:35:00,56.1,50.7,30.07,NW,315,1.6,2.2,77,0.00,,,0.00,fowsr,2013-05-15 09:35:00,
2013-05-15 05:45:00,56.1,50.7,30.07,North,0,1.6,2.2,77,0.00,,,0.00,fowsr,2013-05-15 09:45:00,
2013-05-15 05:50:00,56.1,50.7,30.07,North,0,0.0,1.6,77,0.00,,,0.00,fowsr,2013-05-15 09:50:00,
2013-05-15 05:55:00,56.1,50.7,30.07,NE,45,0.7,1.6,77,0.00,,,0.00,fowsr,2013-05-15 09:55:00,
2013-05-15 06:00:00,55.9,50.6,30.07,NW,315,0.7,1.6,77,0.00,,,0.00,fowsr,2013-05-15 10:00:00,
2013-05-15 06:05:00,55.9,50.8,30.07,NW,315,0.7,1.6,78,0.00,,,0.00,fowsr,2013-05-15 10:05:00,
2013-05-15 06:10:00,55.9,50.8,30.07,North,0,1.6,3.1,78,0.00,,,0.00,fowsr,2013-05-15 10:10:00,
2013-05-15 06:15:00,55.9,50.8,30.07,NW,315,1.6,3.1,78,0.00,,,0.00,fowsr,2013-05-15 10:15:00,
2013-05-15 06:20:00,55.9,50.8,30.07,North,0,0.0,1.6,78,0.00,,,0.00,fowsr,2013-05-15 10:20:00,
2013-05-15 06:25:00,55.9,50.8,30.07,NE,45,1.6,3.1,78,0.00,,,0.00,fowsr,2013-05-15 10:25:00,
2013-05-15 06:30:00,55.9,50.8,30.06,NW,315,2.2,6.0,78,0.00,,,0.00,fowsr,2013-05-15 10:30:00,
2013-05-15 06:35:00,55.9,50.8,30.06,North,0,0.7,1.6,78,0.00,,,0.00,fowsr,2013-05-15 10:35:00,
2013-05-15 06:45:00,56.3,51.2,30.05,North,0,0.7,2.2,78,0.00,,,0.00,fowsr,2013-05-15 10:45:00,
2013-05-15 06:50:00,56.5,51.3,30.05,NW,315,0.7,1.6,78,0.00,,,0.00,fowsr,2013-05-15 10:50:00,
2013-05-15 06:55:00,56.7,51.5,30.05,NW,315,0.7,3.1,78,0.00,,,0.00,fowsr,2013-05-15 10:55:00,
2013-05-15 07:00:00,56.8,51.7,30.05,NE,45,0.7,1.6,78,0.00,,,0.00,fowsr,2013-05-15 11:00:00,
2013-05-15 07:05:00,57.2,51.8,30.05,NE,45,0.7,1.6,77,0.00,,,0.00,fowsr,2013-05-15 11:05:00,
2013-05-15 07:10:00,57.7,52.3,30.05,NW,315,1.6,2.2,77,0.00,,,0.00,fowsr,2013-05-15 11:10:00,
2013-05-15 07:18:00,58.3,52.5,30.05,NW,315,1.6,2.2,76,0.00,,,0.00,fowsr,2013-05-15 11:18:00,
2013-05-15 07:25:00,59.2,52.9,30.05,NW,315,2.2,3.8,74,0.00,,,0.00,fowsr,2013-05-15 11:25:00,
2013-05-15 07:30:00,59.2,52.6,30.04,NW,315,0.7,2.2,73,0.00,,,0.00,fowsr,2013-05-15 11:30:00,
2013-05-15 07:40:00,59.7,53.1,30.03,West,270,2.2,3.8,73,0.00,,,0.00,fowsr,2013-05-15 11:40:00,
2013-05-15 07:48:00,60.1,53.4,30.03,NW,315,2.2,3.1,73,0.00,,,0.00,fowsr,2013-05-15 11:48:00,
2013-05-15 07:55:00,60.8,53.8,30.04,NW,315,2.2,3.1,72,0.00,,,0.00,fowsr,2013-05-15 11:55:00,
2013-05-15 08:03:00,61.0,54.0,30.03,North,0,1.6,3.1,72,0.00,,,0.00,fowsr,2013-05-15 12:03:00,
2013-05-15 08:10:00,60.3,53.6,30.03,NW,315,2.2,3.8,73,0.00,,,0.00,fowsr,2013-05-15 12:10:00,
2013-05-15 08:15:00,60.4,54.1,30.03,NW,315,1.6,3.1,74,0.00,,,0.00,fowsr,2013-05-15 12:15:00,
2013-05-15 08:20:00,60.3,53.9,30.03,NE,45,2.2,3.8,74,0.00,,,0.00,fowsr,2013-05-15 12:20:00,
2013-05-15 08:30:00,61.0,54.3,30.03,North,0,1.6,3.1,73,0.00,,,0.00,fowsr,2013-05-15 12:30:00,
2013-05-15 08:40:00,60.8,54.4,30.02,North,0,2.2,3.8,74,0.00,,,0.00,fowsr,2013-05-15 12:40:00,
2013-05-15 08:45:00,61.2,54.7,30.02,NE,45,1.6,3.1,74,0.00,,,0.00,fowsr,2013-05-15 12:45:00,
2013-05-15 08:50:00,61.5,55.1,30.02,North,0,2.2,3.1,74,0.00,,,0.00,fowsr,2013-05-15 12:50:00,
2013-05-15 08:55:00,61.7,55.3,30.01,NE,45,2.2,6.9,74,0.00,,,0.00,fowsr,2013-05-15 12:55:00,
2013-05-15 09:00:00,62.1,55.6,30.02,North,0,3.1,5.4,74,0.00,,,0.00,fowsr,2013-05-15 13:00:00,
2013-05-15 09:05:00,62.1,55.6,30.01,SE,135,2.2,4.5,74,0.00,,,0.00,fowsr,2013-05-15 13:05:00,
2013-05-15 09:10:00,62.4,56.0,30.03,South,180,2.2,4.5,74,0.00,,,0.00,fowsr,2013-05-15 13:10:00,
2013-05-15 09:13:00,62.2,55.8,30.02,NE,45,3.1,6.0,74,0.00,,,0.00,fowsr,2013-05-15 13:13:00,
2013-05-15 09:19:00,62.4,56.0,30.01,NW,315,2.2,3.1,74,0.00,,,0.00,fowsr,2013-05-15 13:19:00,
2013-05-15 09:25:00,63.1,56.4,30.00,North,0,3.1,5.4,73,0.00,,,0.00,fowsr,2013-05-15 13:25:00,
2013-05-15 09:30:00,63.0,55.9,29.99,NW,315,1.6,2.2,72,0.00,,,0.00,fowsr,2013-05-15 13:30:00,
2013-05-15 09:40:00,62.2,55.8,29.99,North,0,0.7,1.6,74,0.00,,,0.00,fowsr,2013-05-15 13:40:00,
2013-05-15 09:46:00,62.4,56.2,30.00,North,0,1.6,2.2,75,0.00,,,0.00,fowsr,2013-05-15 13:46:00,
2013-05-15 09:55:00,62.6,55.8,30.00,North,0,1.6,3.1,73,0.00,,,0.00,fowsr,2013-05-15 13:55:00,
2013-05-15 10:00:00,63.1,56.4,30.00,NE,45,1.6,3.1,73,0.00,,,0.00,fowsr,2013-05-15 14:00:00,
2013-05-15 10:05:00,63.3,56.2,29.99,NE,45,1.6,3.1,72,0.00,,,0.00,fowsr,2013-05-15 14:05:00,
2013-05-15 10:10:00,63.5,56.4,30.00,North,0,0.7,2.2,72,0.00,,,0.00,fowsr,2013-05-15 14:10:00,
2013-05-15 10:15:00,63.9,56.8,29.99,North,0,1.6,3.1,72,0.00,,,0.00,fowsr,2013-05-15 14:15:00,
2013-05-15 10:20:00,63.5,56.4,30.00,North,0,1.6,2.2,72,0.00,,,0.00,fowsr,2013-05-15 14:20:00,
2013-05-15 10:25:00,63.3,56.2,30.00,North,0,1.6,2.2,72,0.00,,,0.00,fowsr,2013-05-15 14:25:00,
2013-05-15 10:31:00,63.7,56.9,29.99,North,0,1.6,2.2,73,0.00,,,0.00,fowsr,2013-05-15 14:31:00,
2013-05-15 10:40:00,64.4,57.0,30.00,North,0,0.7,1.6,71,0.00,,,0.00,fowsr,2013-05-15 14:40:00,
2013-05-15 10:45:00,64.8,57.6,30.00,NE,45,1.6,3.1,72,0.00,,,0.00,fowsr,2013-05-15 14:45:00,
2013-05-15 10:50:00,65.5,57.7,30.00,NE,45,0.7,1.6,70,0.00,,,0.00,fowsr,2013-05-15 14:50:00,
2013-05-15 10:55:00,66.4,58.2,30.00,NE,45,2.2,3.8,69,0.00,,,0.00,fowsr,2013-05-15 14:55:00,
2013-05-15 11:00:00,67.5,58.6,30.00,North,0,1.6,2.2,67,0.00,,,0.00,fowsr,2013-05-15 15:00:00,
2013-05-15 11:05:00,68.2,58.7,30.00,SE,135,1.6,2.2,65,0.00,,,0.00,fowsr,2013-05-15 15:05:00,
2013-05-15 11:10:00,68.4,58.5,29.99,East,90,0.7,1.6,64,0.00,,,0.00,fowsr,2013-05-15 15:10:00,
2013-05-15 11:15:00,68.5,58.7,29.99,North,0,0.7,1.6,64,0.00,,,0.00,fowsr,2013-05-15 15:15:00,
2013-05-15 11:20:00,68.0,57.8,29.99,North,0,0.0,0.7,63,0.00,,,0.00,fowsr,2013-05-15 15:20:00,
2013-05-15 11:28:00,68.0,57.8,29.99,NE,45,0.7,1.6,63,0.00,,,0.00,fowsr,2013-05-15 15:28:00,
2013-05-15 11:35:00,67.1,57.3,29.97,NE,45,0.7,1.6,64,0.00,,,0.00,fowsr,2013-05-15 15:35:00,
2013-05-15 11:43:00,66.4,57.0,29.97,NW,315,0.7,1.6,65,0.00,,,0.00,fowsr,2013-05-15 15:43:00,
2013-05-15 11:50:00,65.5,57.4,29.95,NW,315,0.7,1.6,69,0.00,,,0.00,fowsr,2013-05-15 15:50:00,
2013-05-15 11:55:00,64.8,56.7,29.95,NW,315,0.0,0.7,69,0.00,,,0.00,fowsr,2013-05-15 15:55:00,
2013-05-15 12:00:00,64.2,56.8,29.94,NW,315,1.6,3.1,71,0.00,,,0.00,fowsr,2013-05-15 16:00:00,
2013-05-15 12:05:00,64.2,57.1,29.93,NW,315,0.7,1.6,72,0.00,,,0.00,fowsr,2013-05-15 16:05:00,
2013-05-15 12:10:00,65.1,58.0,29.93,North,0,0.7,2.2,72,0.00,,,0.00,fowsr,2013-05-15 16:10:00,
2013-05-15 12:15:00,65.7,57.9,29.93,North,0,1.6,2.2,70,0.00,,,0.00,fowsr,2013-05-15 16:15:00,
2013-05-15 12:16:00,66.6,58.4,29.93,NW,315,3.1,6.9,69,0.00,,,0.00,fowsr,2013-05-15 16:16:00,
2013-05-15 12:28:00,67.3,58.5,29.93,NW,315,2.2,3.1,67,0.00,,,0.00,fowsr,2013-05-15 16:28:00,
2013-05-15 12:35:00,67.5,58.3,29.93,NW,315,1.6,3.1,66,0.00,,,0.00,fowsr,2013-05-15 16:35:00,
2013-05-15 12:40:00,67.6,58.5,29.93,NE,45,2.2,3.8,66,0.00,,,0.00,fowsr,2013-05-15 16:40:00,
2013-05-15 12:48:00,67.8,58.7,29.93,North,0,0.7,1.6,66,0.00,,,0.00,fowsr,2013-05-15 16:48:00,
2013-05-15 12:55:00,69.1,59.2,29.93,North,0,2.2,5.4,64,0.00,,,0.00,fowsr,2013-05-15 16:55:00,
2013-05-15 13:00:00,69.8,59.2,29.93,North,0,1.6,3.1,62,0.00,,,0.00,fowsr,2013-05-15 17:00:00,
2013-05-15 13:05:00,69.4,59.2,29.93,North,0,1.6,2.2,63,0.00,,,0.00,fowsr,2013-05-15 17:05:00,
2013-05-15 13:13:00,69.6,59.7,29.93,NW,315,0.7,2.2,64,0.00,,,0.00,fowsr,2013-05-15 17:13:00,
2013-05-15 13:20:00,70.2,59.5,29.93,NW,315,0.7,1.6,62,0.00,,,0.00,fowsr,2013-05-15 17:20:00,
2013-05-15 13:25:00,70.3,60.0,29.94,NW,315,0.7,2.2,63,0.00,,,0.00,fowsr,2013-05-15 17:25:00,
2013-05-15 13:30:00,71.1,60.3,29.93,NW,315,1.6,3.8,62,0.00,,,0.00,fowsr,2013-05-15 17:30:00,
2013-05-15 13:35:00,70.5,58.8,29.93,SSE,157,2.2,3.8,59,0.00,,,0.00,fowsr,2013-05-15 17:35:00,
2013-05-15 13:40:00,68.9,58.7,29.93,North,0,1.6,2.2,63,0.00,,,0.00,fowsr,2013-05-15 17:40:00,
2013-05-15 13:45:00,68.0,58.2,29.92,NE,45,2.2,3.8,64,0.00,,,0.00,fowsr,2013-05-15 17:45:00,
2013-05-15 13:50:00,67.3,58.1,29.92,NE,45,0.7,1.6,66,0.00,,,0.00,fowsr,2013-05-15 17:50:00,
2013-05-15 13:58:00,67.1,58.3,29.91,NW,315,1.6,3.1,67,0.00,,,0.00,fowsr,2013-05-15 17:58:00,
2013-05-15 14:05:00,65.8,57.7,29.93,NE,45,0.7,2.2,69,0.00,,,0.00,fowsr,2013-05-15 18:05:00,
2013-05-15 14:10:00,65.5,57.4,29.93,NW,315,0.7,2.2,69,0.00,,,0.00,fowsr,2013-05-15 18:10:00,
2013-05-15 14:16:00,65.5,57.7,29.92,North,0,1.6,2.2,70,0.00,,,0.00,fowsr,2013-05-15 18:16:00,
2013-05-15 14:25:00,66.9,58.4,29.92,North,0,0.7,1.6,68,0.00,,,0.00,fowsr,2013-05-15 18:25:00,
2013-05-15 14:33:00,67.5,59.0,29.92,NW,315,1.6,3.1,68,0.00,,,0.00,fowsr,2013-05-15 18:33:00,
2013-05-15 14:40:00,67.5,58.6,29.91,North,0,0.7,1.6,67,0.00,,,0.00,fowsr,2013-05-15 18:40:00,
2013-05-15 14:45:00,67.1,58.3,29.91,NW,315,0.7,2.2,67,0.00,,,0.00,fowsr,2013-05-15 18:45:00,
2013-05-15 14:50:00,66.4,57.6,29.91,NW,315,0.7,1.6,67,0.00,,,0.00,fowsr,2013-05-15 18:50:00,
2013-05-15 14:55:00,66.2,58.1,29.91,North,0,0.7,1.6,69,0.00,,,0.00,fowsr,2013-05-15 18:55:00,
2013-05-15 15:00:00,66.2,58.1,29.91,North,0,0.7,1.6,69,0.00,,,0.00,fowsr,2013-05-15 19:00:00,
2013-05-15 15:05:00,66.2,58.1,29.91,NE,45,0.7,1.6,69,0.00,,,0.00,fowsr,2013-05-15 19:05:00,
2013-05-15 15:10:00,66.7,58.9,29.92,North,0,0.0,1.6,70,0.00,,,0.00,fowsr,2013-05-15 19:10:00,
2013-05-15 15:15:00,67.3,59.1,29.93,East,90,0.7,1.6,69,0.00,,,0.00,fowsr,2013-05-15 19:15:00,
2013-05-15 15:25:00,67.6,59.1,29.93,East,90,1.6,3.8,68,0.00,,,0.00,fowsr,2013-05-15 19:25:00,
2013-05-15 15:34:00,67.3,58.8,29.92,NE,45,0.7,2.2,68,0.00,,,0.00,fowsr,2013-05-15 19:34:00,
2013-05-15 15:40:00,67.1,59.2,29.86,North,0,0.0,0.7,70,0.00,,,0.00,fowsr,2013-05-15 19:40:00,
2013-05-15 15:45:00,67.8,60.2,29.87,North,0,0.7,1.6,71,0.00,,,0.00,fowsr,2013-05-15 19:45:00,
2013-05-15 15:53:00,68.5,60.3,29.87,North,0,0.7,2.2,69,0.00,,,0.00,fowsr,2013-05-15 19:53:00,
2013-05-15 16:00:00,69.8,60.5,29.86,North,0,0.0,0.7,66,0.00,,,0.00,fowsr,2013-05-15 20:00:00,
2013-05-15 16:08:00,70.0,60.4,29.85,South,180,0.7,1.6,65,0.00,,,0.00,fowsr,2013-05-15 20:08:00,
2013-05-15 16:15:00,69.6,60.3,29.84,North,0,0.7,2.2,66,0.00,,,0.00,fowsr,2013-05-15 20:15:00,
2013-05-15 16:20:00,69.6,60.3,29.83,NW,315,1.6,3.1,66,0.00,,,0.00,fowsr,2013-05-15 20:20:00,
2013-05-15 16:25:00,69.3,60.0,29.82,NE,45,2.2,3.8,66,0.00,,,0.00,fowsr,2013-05-15 20:25:00,
2013-05-15 16:30:00,68.9,59.7,29.81,North,0,0.7,2.2,66,0.00,,,0.00,fowsr,2013-05-15 20:30:00,
2013-05-15 16:38:00,68.9,59.7,29.81,North,0,1.6,2.2,66,0.00,,,0.00,fowsr,2013-05-15 20:38:00,
2013-05-15 16:45:00,70.0,60.0,29.80,NW,315,3.1,6.0,64,0.00,,,0.00,fowsr,2013-05-15 20:45:00,
2013-05-15 16:50:00,70.7,60.7,29.79,North,0,1.6,2.2,64,0.00,,,0.00,fowsr,2013-05-15 20:50:00,
2013-05-15 16:55:00,71.6,60.8,29.79,North,0,1.6,3.1,62,0.00,,,0.00,fowsr,2013-05-15 20:55:00,
2013-05-15 17:00:00,72.1,61.0,29.79,North,0,1.6,3.1,61,0.00,,,0.00,fowsr,2013-05-15 21:00:00,
2013-05-15 17:08:00,72.0,60.8,29.79,North,0,1.6,3.1,61,0.00,,,0.00,fowsr,2013-05-15 21:08:00,
2013-05-15 17:15:00,71.1,60.3,29.79,SW,225,2.2,3.8,62,0.00,,,0.00,fowsr,2013-05-15 21:15:00,
2013-05-15 17:20:00,70.2,59.8,29.79,NW,315,1.6,3.1,63,0.00,,,0.00,fowsr,2013-05-15 21:20:00,
2013-05-15 17:25:00,70.2,59.8,29.78,North,0,1.6,3.8,63,0.00,,,0.00,fowsr,2013-05-15 21:25:00,
2013-05-15 17:30:00,70.3,60.0,29.78,WNW,292,2.2,4.5,63,0.00,,,0.00,fowsr,2013-05-15 21:30:00,
2013-05-15 17:35:00,70.5,60.2,29.78,North,0,2.2,4.5,63,0.00,,,0.00,fowsr,2013-05-15 21:35:00,
2013-05-15 17:41:00,70.7,60.4,29.78,North,0,3.1,7.6,63,0.00,,,0.00,fowsr,2013-05-15 21:41:00,
2013-05-15 17:50:00,70.9,60.2,29.77,NE,45,2.2,3.8,62,0.00,,,0.00,fowsr,2013-05-15 21:50:00,
2013-05-15 17:55:00,71.1,60.7,29.77,North,0,2.2,3.8,63,0.00,,,0.00,fowsr,2013-05-15 21:55:00,
2013-05-15 18:00:00,70.9,60.5,29.77,NW,315,2.2,3.8,63,0.00,,,0.00,fowsr,2013-05-15 22:00:00,
2013-05-15 18:05:00,70.9,60.5,29.77,NW,315,2.2,5.4,63,0.00,,,0.00,fowsr,2013-05-15 22:05:00,
2013-05-15 18:10:00,70.7,60.4,29.77,NW,315,2.2,4.5,63,0.00,,,0.00,fowsr,2013-05-15 22:10:00,
2013-05-15 18:15:00,70.7,60.4,29.77,East,90,2.2,3.8,63,0.00,,,0.00,fowsr,2013-05-15 22:15:00,
2013-05-15 18:20:00,70.5,60.5,29.77,North,0,1.6,2.2,64,0.00,,,0.00,fowsr,2013-05-15 22:20:00,
2013-05-15 18:25:00,70.3,60.4,29.77,NW,315,2.2,4.5,64,0.00,,,0.00,fowsr,2013-05-15 22:25:00,
2013-05-15 18:30:00,70.3,60.4,29.77,NW,315,1.6,3.1,64,0.00,,,0.00,fowsr,2013-05-15 22:30:00,
2013-05-15 18:35:00,70.2,60.5,29.76,WNW,292,1.6,3.1,65,0.00,,,0.00,fowsr,2013-05-15 22:35:00,
2013-05-15 18:40:00,70.0,60.4,29.77,North,0,2.2,3.8,65,0.00,,,0.00,fowsr,2013-05-15 22:40:00,
2013-05-15 18:45:00,69.8,60.5,29.76,SE,135,1.6,3.1,66,0.00,,,0.00,fowsr,2013-05-15 22:45:00,
2013-05-15 18:50:00,69.8,60.5,29.76,NE,45,0.7,2.2,66,0.00,,,0.00,fowsr,2013-05-15 22:50:00,
2013-05-15 18:55:00,69.8,60.5,29.77,NW,315,0.7,2.2,66,0.00,,,0.00,fowsr,2013-05-15 22:55:00,
2013-05-15 19:03:00,69.6,60.7,29.77,West,270,0.7,1.6,67,0.00,,,0.00,fowsr,2013-05-15 23:03:00,
2013-05-15 19:13:00,68.9,60.3,29.77,North,0,0.7,2.2,68,0.00,,,0.00,fowsr,2013-05-15 23:13:00,
2013-05-15 19:20:00,68.0,59.8,29.76,North,0,0.7,1.6,69,0.00,,,0.00,fowsr,2013-05-15 23:20:00,
2013-05-15 19:25:00,67.5,59.9,29.76,NW,315,0.7,1.6,71,0.00,,,0.00,fowsr,2013-05-15 23:25:00,
2013-05-15 19:30:00,66.9,59.7,29.76,NW,315,0.7,2.2,72,0.00,,,0.00,fowsr,2013-05-15 23:30:00,
2013-05-15 19:35:00,66.6,59.6,29.77,NE,45,0.7,1.6,73,0.00,,,0.00,fowsr,2013-05-15 23:35:00,
2013-05-15 19:45:00,65.7,59.3,29.77,NW,315,1.6,2.2,75,0.00,,,0.00,fowsr,2013-05-15 23:45:00,
2013-05-15 19:50:00,65.5,59.5,29.76,North,0,0.7,2.2,76,0.00,,,0.00,fowsr,2013-05-15 23:50:00,
2013-05-15 19:55:00,65.3,59.3,29.77,North,0,0.7,2.2,76,0.00,,,0.00,fowsr,2013-05-15 23:55:00,
2013-05-15 20:00:00,65.1,59.1,29.77,NW,315,0.7,2.2,76,0.00,,,0.00,fowsr,2013-05-16 00:00:00,
2013-05-15 20:05:00,64.9,59.2,29.77,NW,315,0.7,1.6,77,0.00,,,0.00,fowsr,2013-05-16 00:05:00,
2013-05-15 20:10:00,64.8,59.0,29.77,North,0,0.7,1.6,77,0.00,,,0.00,fowsr,2013-05-16 00:10:00,
2013-05-15 20:15:00,64.6,58.9,29.77,NW,315,0.0,1.6,77,0.00,,,0.00,fowsr,2013-05-16 00:15:00,
2013-05-15 20:23:00,64.4,59.0,29.77,NW,315,0.7,1.6,78,0.00,,,0.00,fowsr,2013-05-16 00:23:00,
2013-05-15 20:30:00,63.9,58.7,29.77,North,0,0.7,1.6,79,0.00,,,0.00,fowsr,2013-05-16 00:30:00,
2013-05-15 20:35:00,63.7,58.8,29.77,NW,315,0.7,1.6,80,0.00,,,0.00,fowsr,2013-05-16 00:35:00,
2013-05-15 20:40:00,63.5,58.9,29.77,NW,315,0.0,1.6,81,0.00,,,0.00,fowsr,2013-05-16 00:40:00,
2013-05-15 20:45:00,63.3,58.7,29.77,North,0,0.0,1.6,81,0.00,,,0.00,fowsr,2013-05-16 00:45:00,
2013-05-15 20:50:00,63.3,58.7,29.77,North,0,0.0,1.6,81,0.00,,,0.00,fowsr,2013-05-16 00:50:00,
2013-05-15 20:55:00,63.1,58.6,29.77,North,0,0.7,1.6,81,0.00,,,0.00,fowsr,2013-05-16 00:55:00,
2013-05-15 21:06:00,63.0,58.7,29.77,NW,315,0.0,1.6,82,0.00,,,0.00,fowsr,2013-05-16 01:06:00,
2013-05-15 21:18:00,63.0,58.7,29.77,NW,315,0.0,0.7,82,0.00,,,0.00,fowsr,2013-05-16 01:18:00,
2013-05-15 21:25:00,63.1,58.8,29.77,North,0,0.7,1.6,82,0.00,,,0.00,fowsr,2013-05-16 01:25:00,
2013-05-15 21:30:00,63.0,58.7,29.77,NW,315,0.0,0.7,82,0.00,,,0.00,fowsr,2013-05-16 01:30:00,
2013-05-15 21:35:00,63.0,58.7,29.77,NW,315,0.0,0.7,82,0.00,,,0.00,fowsr,2013-05-16 01:35:00,
2013-05-15 21:43:00,62.8,58.5,29.78,North,0,0.0,0.7,82,0.00,,,0.00,fowsr,2013-05-16 01:43:00,
2013-05-15 21:48:00,62.8,58.5,29.78,North,0,0.0,0.7,82,0.00,,,0.00,fowsr,2013-05-16 01:48:00,
2013-05-15 21:55:00,62.6,58.6,29.78,North,0,0.0,1.6,83,0.00,,,0.00,fowsr,2013-05-16 01:55:00,
2013-05-15 22:00:00,62.6,58.6,29.78,NW,315,0.0,0.7,83,0.00,,,0.00,fowsr,2013-05-16 02:00:00,
2013-05-15 22:05:00,62.6,58.8,29.78,NW,315,0.0,0.7,84,0.00,,,0.00,fowsr,2013-05-16 02:05:00,
2013-05-15 22:10:00,62.8,59.0,29.78,North,0,0.0,0.7,84,0.00,,,0.00,fowsr,2013-05-16 02:10:00,
2013-05-15 22:16:00,62.8,59.0,29.78,NW,315,0.0,0.7,84,0.00,,,0.00,fowsr,2013-05-16 02:16:00,
2013-05-15 22:25:00,63.0,59.2,29.78,North,0,0.0,0.7,84,0.00,,,0.00,fowsr,2013-05-16 02:25:00,
2013-05-15 22:35:00,63.3,59.5,29.77,North,0,0.0,1.6,84,0.00,,,0.00,fowsr,2013-05-16 02:35:00,
2013-05-15 22:40:00,63.5,59.7,29.77,North,0,0.0,1.6,84,0.00,,,0.00,fowsr,2013-05-16 02:40:00,
2013-05-15 22:50:00,63.7,59.9,29.77,North,0,0.0,0.7,84,0.00,,,0.00,fowsr,2013-05-16 02:50:00,
2013-05-15 22:55:00,63.9,60.0,29.77,North,0,0.0,0.7,84,0.00,,,0.00,fowsr,2013-05-16 02:55:00,
2013-05-15 23:00:00,64.0,60.2,29.77,North,0,0.0,0.7,84,0.00,,,0.00,fowsr,2013-05-16 03:00:00,
2013-05-15 23:05:00,64.0,60.2,29.77,North,0,0.0,0.0,84,0.00,,,0.00,fowsr,2013-05-16 03:05:00,
2013-05-15 23:10:00,64.2,60.4,29.77,North,0,0.0,0.7,84,0.00,,,0.00,fowsr,2013-05-16 03:10:00,
2013-05-15 23:15:00,64.9,61.6,29.77,North,0,1.6,4.5,86,0.00,,,0.00,fowsr,2013-05-16 03:15:00,
2013-05-15 23:20:00,66.6,62.9,29.77,North,0,2.2,6.9,85,0.00,,,0.00,fowsr,2013-05-16 03:20:00,
2013-05-15 23:25:00,67.6,63.2,29.77,East,90,0.7,1.6,82,0.00,,,0.00,fowsr,2013-05-16 03:25:00,
2013-05-15 23:30:00,68.2,62.6,29.77,ESE,112,1.6,3.1,78,0.00,,,0.00,fowsr,2013-05-16 03:30:00,
2013-05-15 23:35:00,68.4,62.2,29.77,North,0,1.6,3.8,76,0.00,,,0.00,fowsr,2013-05-16 03:35:00,
2013-05-15 23:40:00,68.5,62.4,29.76,North,0,2.2,3.1,76,0.00,,,0.00,fowsr,2013-05-16 03:40:00,
2013-05-15 23:45:00,68.5,62.1,29.76,NE,45,3.1,5.4,75,0.00,,,0.00,fowsr,2013-05-16 03:45:00,
2013-05-15 23:50:00,68.7,62.3,29.77,SE,135,3.1,6.0,75,0.00,,,0.00,fowsr,2013-05-16 03:50:00,
2013-05-15 23:55:00,68.7,62.0,29.77,NE,45,1.6,3.1,74,0.00,,,0.00,fowsr,2013-05-16 03:55:00,